createdAt,value
2022-12-29T00:07:09.483Z,80.94
2022-12-29T00:15:38.551Z,81.06
2022-12-29T00:24:20.956Z,80.91
2022-12-29T00:33:02.418Z,80.75
2022-12-29T00:41:43.621Z,80.91
2022-12-29T00:50:06.659Z,80.76
2022-12-29T00:58:31.705Z,80.89
2022-12-29T01:06:54.786Z,80.72
2022-12-29T01:15:17.678Z,80.55
2022-12-29T01:23:41.101Z,80.87
2022-12-29T01:32:04.028Z,80.78
2022-12-29T01:40:27.048Z,80.56
2022-12-29T01:48:53.570Z,80.54
2022-12-29T01:57:26.338Z,80.66
2022-12-29T02:05:59.973Z,80.74
2022-12-29T02:14:22.874Z,80.55
2022-12-29T02:23:12.783Z,80.81
2022-12-29T02:31:50.814Z,80.61
2022-12-29T02:40:26.251Z,80.43
2022-12-29T02:49:03.088Z,80.51
2022-12-29T02:57:27.555Z,80.42
2022-12-29T03:06:11.607Z,80.37
2022-12-29T03:14:59.784Z,80.59
2022-12-29T03:23:27.894Z,80.33
2022-12-29T03:31:54.229Z,80.48
2022-12-29T03:40:22.561Z,80.39
2022-12-29T03:48:45.481Z,80.32
2022-12-29T03:57:10.558Z,80.25
2022-12-29T04:05:53.577Z,80.31
2022-12-29T04:14:17.320Z,80.30
2022-12-29T04:22:43.992Z,80.33
2022-12-29T04:31:08.164Z,80.41
2022-12-29T04:39:35.157Z,80.43
2022-12-29T04:47:59.017Z,80.36
2022-12-29T04:56:51.134Z,80.23
2022-12-29T05:05:16.032Z,80.36
2022-12-29T05:13:47.911Z,80.40
2022-12-29T05:22:13.381Z,80.30
2022-12-29T05:30:40.671Z,80.20
2022-12-29T05:39:03.902Z,80.24
2022-12-29T05:47:28.777Z,80.32
2022-12-29T05:56:08.253Z,80.18
2022-12-29T06:04:31.641Z,80.13
2022-12-29T06:12:54.757Z,80.33
2022-12-29T06:21:18.485Z,80.28
2022-12-29T06:29:43.873Z,80.23
2022-12-29T06:38:07.594Z,80.43
2022-12-29T06:46:30.606Z,80.46
2022-12-29T06:54:53.532Z,80.35
2022-12-29T07:03:16.378Z,80.43
2022-12-29T07:11:40.384Z,80.39
2022-12-29T07:20:03.490Z,80.41
2022-12-29T07:28:26.310Z,80.66
2022-12-29T07:36:49.062Z,80.58
2022-12-29T07:45:12.026Z,80.29
2022-12-29T07:54:10.563Z,80.52
2022-12-29T08:02:33.543Z,80.52
2022-12-29T08:10:56.879Z,80.55
2022-12-29T08:19:19.753Z,80.59
2022-12-29T08:27:42.631Z,80.77
2022-12-29T08:36:08.165Z,80.88
2022-12-29T08:44:31.019Z,80.72
2022-12-29T08:52:53.800Z,80.80
2022-12-29T09:01:16.616Z,80.77
2022-12-29T09:09:39.722Z,80.59
2022-12-29T09:18:02.602Z,80.84
2022-12-29T09:26:25.363Z,80.72
2022-12-29T09:34:48.150Z,80.71
2022-12-29T09:43:40.070Z,80.77
2022-12-29T09:52:14.482Z,80.75
2022-12-29T10:00:52.830Z,80.64
2022-12-29T10:09:30.855Z,80.53
2022-12-29T10:17:53.787Z,80.86
2022-12-29T10:26:22.967Z,80.78
2022-12-29T10:34:51.037Z,80.54
2022-12-29T10:43:26.232Z,80.53
2022-12-29T10:51:52.991Z,80.79
2022-12-29T11:00:17.874Z,80.86
2022-12-29T11:08:52.409Z,80.70
2022-12-29T11:17:19.405Z,80.83
2022-12-29T11:25:43.287Z,80.82
2022-12-29T11:34:08.797Z,80.85
2022-12-29T11:42:43.122Z,80.76
2022-12-29T11:51:07.690Z,80.94
2022-12-29T11:59:37.742Z,80.98
2022-12-29T12:08:21.187Z,80.81
2022-12-29T12:16:51.245Z,80.62
2022-12-29T12:25:19.423Z,80.76
2022-12-29T12:33:51.584Z,80.64
2022-12-29T12:42:39.597Z,80.39
2022-12-29T12:51:30.828Z,80.25
2022-12-29T13:00:02.404Z,80.27
2022-12-29T13:08:37.193Z,80.11
2022-12-29T13:17:03.090Z,80.29
2022-12-29T13:25:25.997Z,80.36
2022-12-29T13:34:04.508Z,80.17
2022-12-29T13:42:28.933Z,80.20
2022-12-29T13:50:59.853Z,80.20
2022-12-29T13:59:29.371Z,79.99
2022-12-29T14:08:07.311Z,80.05
2022-12-29T14:16:33.656Z,80.13
2022-12-29T14:24:56.955Z,80.03
2022-12-29T14:33:21.464Z,80.07
2022-12-29T14:41:44.657Z,79.80
2022-12-29T14:50:17.190Z,79.85
2022-12-29T14:58:55.048Z,79.96
2022-12-29T15:07:20.264Z,79.90
2022-12-29T15:15:44.936Z,80.07
2022-12-29T15:24:12.046Z,79.80
2022-12-29T15:32:44.552Z,79.73
2022-12-29T15:41:13.937Z,79.88
2022-12-29T15:49:36.907Z,79.88
2022-12-29T15:58:02.802Z,79.69
2022-12-29T16:06:36.203Z,79.65
2022-12-29T16:15:03.219Z,79.75
2022-12-29T16:23:30.025Z,79.54
2022-12-29T16:32:01.833Z,79.44
2022-12-29T16:40:31.548Z,79.30
2022-12-29T16:48:57.060Z,79.31
2022-12-29T16:57:26.855Z,79.28
2022-12-29T17:05:55.533Z,79.42
2022-12-29T17:14:20.478Z,79.05
2022-12-29T17:22:43.453Z,79.09
2022-12-29T17:31:07.761Z,79.29
2022-12-29T17:39:30.800Z,78.98
2022-12-29T17:47:54.241Z,79.11
2022-12-29T17:56:17.049Z,78.84
2022-12-29T18:04:39.955Z,78.81
2022-12-29T18:13:03.290Z,78.73
2022-12-29T18:21:26.290Z,78.90
2022-12-29T18:29:49.512Z,78.75
2022-12-29T18:38:12.364Z,78.89
2022-12-29T18:46:35.386Z,78.85
2022-12-29T18:54:58.195Z,78.89
2022-12-29T19:03:21.155Z,78.98
2022-12-29T19:11:44.330Z,78.87
2022-12-29T19:20:23.659Z,79.03
2022-12-29T19:28:46.420Z,79.04
2022-12-29T19:37:09.188Z,79.05
2022-12-29T19:45:32.019Z,78.97
2022-12-29T19:53:55.027Z,79.11
2022-12-29T20:02:21.133Z,79.17
2022-12-29T20:10:44.068Z,79.17
2022-12-29T20:19:06.883Z,79.17
2022-12-29T20:27:30.192Z,79.09
2022-12-29T20:35:53.246Z,79.29
2022-12-29T20:44:16.045Z,79.18
2022-12-29T20:52:39.033Z,79.13
2022-12-29T21:01:05.231Z,79.15
2022-12-29T21:09:28.665Z,78.83
2022-12-29T21:17:51.539Z,79.07
2022-12-29T21:26:17.612Z,79.25
2022-12-29T21:34:40.655Z,79.12
2022-12-29T21:43:04.553Z,79.04
2022-12-29T21:51:46.279Z,79.08
2022-12-29T22:00:28.994Z,79.07
2022-12-29T22:09:10.779Z,78.81
2022-12-29T22:17:37.524Z,78.90
2022-12-29T22:26:05.779Z,78.88
2022-12-29T22:34:28.653Z,79.04
2022-12-29T22:42:51.777Z,78.87
2022-12-29T22:51:14.611Z,78.79
2022-12-29T22:59:37.413Z,78.90
2022-12-29T23:08:00.869Z,78.98
2022-12-29T23:16:23.919Z,78.85
2022-12-29T23:24:46.744Z,78.74
2022-12-29T23:33:09.563Z,78.88
2022-12-29T23:41:32.932Z,79.02
2022-12-29T23:49:56.403Z,78.85
2022-12-29T23:58:19.246Z,79.06
